Time;durP1;ratioP1;P1;durP2;ratioP2;P2;SDS_P1;SDS_P2;PMS_P1;PMS_P2;Temp;Humidity;BMP_temperature;BMP_pressure;BME280_temperature;BME280_humidity;BME280_pressure;Samples;Min_cycle;Max_cycle;Signal;HPM_P1;HPM_P2
2021/10/20 00:02:04;;;;;;;5.00;4.60;;;;;;;;;;5073789;28;20561;-64
2021/10/20 00:04:30;;;;;;;4.97;4.50;;;;;;;;;;5073660;28;20558;-63
2021/10/20 00:06:55;;;;;;;5.20;4.70;;;;;;;;;;5074060;28;20469;-64
2021/10/20 00:09:20;;;;;;;6.00;5.23;;;;;;;;;;5073441;28;20251;-62
2021/10/20 00:11:47;;;;;;;6.90;6.20;;;;;;;;;;5073829;28;20311;-64
2021/10/20 00:14:12;;;;;;;5.93;5.20;;;;;;;;;;5073923;28;20264;-64
2021/10/20 00:16:37;;;;;;;7.63;5.20;;;;;;;;;;5073743;28;20526;-63
2021/10/20 00:19:03;;;;;;;6.43;5.67;;;;;;;;;;5073969;28;20220;-64
2021/10/20 00:21:29;;;;;;;6.77;6.17;;;;;;;;;;5073328;28;20228;-63
2021/10/20 00:23:55;;;;;;;6.73;5.57;;;;;;;;;;5077960;28;20551;-63
2021/10/20 00:26:21;;;;;;;7.30;6.60;;;;;;;;;;5077332;28;20484;-62
2021/10/20 00:28:46;;;;;;;6.30;5.80;;;;;;;;;;5077915;28;20221;-63
2021/10/20 00:31:12;;;;;;;6.77;6.07;;;;;;;;;;5077583;28;20220;-64
2021/10/20 00:33:37;;;;;;;7.63;6.00;;;;;;;;;;5077157;28;20216;-64
2021/10/20 00:36:02;;;;;;;6.17;5.57;;;;;;;;;;5077747;28;20289;-64
2021/10/20 00:38:28;;;;;;;6.10;5.60;;;;;;;;;;5077069;28;20213;-63
2021/10/20 00:40:53;;;;;;;7.90;5.90;;;;;;;;;;5077299;28;20219;-63
2021/10/20 00:43:20;;;;;;;6.40;5.80;;;;;;;;;;5077108;28;20219;-62
2021/10/20 00:45:46;;;;;;;7.03;6.00;;;;;;;;;;5077319;28;20639;-63
2021/10/20 00:48:11;;;;;;;6.07;5.47;;;;;;;;;;5076198;28;20463;-64
2021/10/20 00:50:36;;;;;;;6.50;6.00;;;;;;;;;;5075563;28;22577;-63
2021/10/20 00:53:02;;;;;;;7.23;6.53;;;;;;;;;;5077376;28;20224;-63
2021/10/20 00:55:28;;;;;;;6.10;5.50;;;;;;;;;;5076914;28;20229;-63
2021/10/20 00:57:53;;;;;;;7.50;6.27;;;;;;;;;;5076197;28;20216;-64
2021/10/20 01:00:18;;;;;;;5.70;5.20;;;;;;;;;;5076676;28;20679;-61
2021/10/20 01:02:45;;;;;;;7.37;6.67;;;;;;;;;;5077168;28;20278;-63
2021/10/20 01:05:10;;;;;;;6.83;6.20;;;;;;;;;;5077037;28;20232;-64
2021/10/20 01:07:36;;;;;;;8.43;6.77;;;;;;;;;;5076692;28;20534;-64
2021/10/20 01:10:04;;;;;;;7.03;6.33;;;;;;;;;;5076638;28;20225;-64
2021/10/20 01:12:29;;;;;;;9.13;7.77;;;;;;;;;;5076478;28;20509;-63
2021/10/20 01:14:54;;;;;;;12.00;8.23;;;;;;;;;;5076844;28;20454;-63
2021/10/20 01:17:20;;;;;;;8.60;7.80;;;;;;;;;;5075825;28;20217;-62
2021/10/20 01:19:45;;;;;;;9.87;8.57;;;;;;;;;;5076925;28;20573;-63
2021/10/20 01:22:11;;;;;;;8.53;7.73;;;;;;;;;;5077035;28;20330;-64
2021/10/20 01:24:37;;;;;;;8.60;7.80;;;;;;;;;;5076508;28;20652;-64
2021/10/20 01:27:02;;;;;;;9.67;8.77;;;;;;;;;;5076632;28;20459;-63
2021/10/20 01:29:28;;;;;;;9.30;8.50;;;;;;;;;;5076100;28;20217;-63
2021/10/20 01:31:56;;;;;;;10.40;9.00;;;;;;;;;;5076392;28;20234;-63
2021/10/20 01:34:21;;;;;;;10.13;9.23;;;;;;;;;;5075366;28;20216;-62
2021/10/20 01:36:48;;;;;;;11.10;10.00;;;;;;;;;;5076522;28;20459;-64
2021/10/20 01:39:14;;;;;;;13.73;10.60;;;;;;;;;;5076658;28;20212;-64
2021/10/20 01:41:40;;;;;;;10.30;9.20;;;;;;;;;;5075975;28;20462;-64
2021/10/20 01:44:06;;;;;;;11.83;10.47;;;;;;;;;;5076396;28;20525;-63
2021/10/20 01:46:31;;;;;;;11.67;10.67;;;;;;;;;;5076236;28;20516;-63
2021/10/20 01:48:56;;;;;;;11.87;10.80;;;;;;;;;;5076445;28;20227;-64
2021/10/20 01:51:22;;;;;;;12.40;11.30;;;;;;;;;;5074683;28;20228;-63
2021/10/20 01:53:47;;;;;;;11.67;10.57;;;;;;;;;;5076212;28;20674;-63
2021/10/20 01:56:13;;;;;;;11.27;10.17;;;;;;;;;;5076195;28;20220;-63
2021/10/20 01:58:42;;;;;;;14.93;12.97;;;;;;;;;;5075790;28;20212;-65
2021/10/20 02:01:07;;;;;;;12.70;11.50;;;;;;;;;;5075912;28;20220;-64
2021/10/20 02:03:36;;;;;;;14.33;11.53;;;;;;;;;;5075779;28;20450;-65
2021/10/20 02:06:20;;;;;;;12.67;11.53;;;;;;;;;;5075955;28;20455;-64
2021/10/20 02:08:46;;;;;;;11.90;10.40;;;;;;;;;;5075741;28;20453;-64
2021/10/20 02:11:12;;;;;;;12.90;11.60;;;;;;;;;;5075676;28;20463;-64
2021/10/20 02:13:39;;;;;;;12.50;11.30;;;;;;;;;;5075360;28;20791;-64
2021/10/20 02:16:04;;;;;;;12.57;10.33;;;;;;;;;;5075789;28;20833;-64
2021/10/20 02:18:30;;;;;;;14.50;11.43;;;;;;;;;;5075508;28;20466;-64
2021/10/20 02:20:56;;;;;;;12.57;11.37;;;;;;;;;;5075441;28;20252;-64
2021/10/20 02:23:21;;;;;;;13.93;12.53;;;;;;;;;;5075428;28;20300;-64
2021/10/20 02:25:47;;;;;;;12.07;10.70;;;;;;;;;;5075152;28;20205;-64
2021/10/20 02:28:12;;;;;;;11.97;10.87;;;;;;;;;;5075611;28;20274;-65
2021/10/20 02:30:38;;;;;;;11.47;10.30;;;;;;;;;;5074979;28;20319;-64
2021/10/20 02:33:04;;;;;;;11.57;10.57;;;;;;;;;;5075563;28;20204;-64
2021/10/20 02:35:29;;;;;;;10.83;9.90;;;;;;;;;;5074014;28;20451;-63
2021/10/20 02:37:54;;;;;;;12.23;11.10;;;;;;;;;;5075651;28;20242;-64
2021/10/20 02:40:20;;;;;;;12.47;11.27;;;;;;;;;;5075040;28;20531;-64
2021/10/20 02:42:45;;;;;;;12.60;11.40;;;;;;;;;;5074663;28;20227;-64
2021/10/20 02:45:13;;;;;;;11.07;9.97;;;;;;;;;;5074285;28;20216;-65
2021/10/20 02:47:39;;;;;;;10.37;9.37;;;;;;;;;;5073551;28;20212;-64
2021/10/20 02:50:05;;;;;;;9.93;9.03;;;;;;;;;;5075055;28;20938;-64
2021/10/20 02:52:30;;;;;;;12.57;11.30;;;;;;;;;;5074597;28;20462;-62
2021/10/20 02:54:55;;;;;;;12.77;10.60;;;;;;;;;;5056143;28;20482;-63
2021/10/20 02:57:21;;;;;;;10.77;9.77;;;;;;;;;;5058740;28;20295;-64
2021/10/20 02:59:47;;;;;;;11.90;10.73;;;;;;;;;;5065289;28;20636;-63
2021/10/20 03:02:12;;;;;;;13.43;9.80;;;;;;;;;;5060952;28;20216;-63
2021/10/20 03:04:38;;;;;;;11.97;10.77;;;;;;;;;;5063426;28;20470;-62
2021/10/20 03:07:03;;;;;;;11.70;10.60;;;;;;;;;;5068167;28;20614;-63
2021/10/20 03:09:28;;;;;;;10.10;9.10;;;;;;;;;;5064336;28;20327;-62
2021/10/20 03:11:53;;;;;;;10.93;9.93;;;;;;;;;;5060704;28;20277;-63
2021/10/20 03:14:19;;;;;;;10.10;9.07;;;;;;;;;;5064082;28;20236;-63
2021/10/20 03:16:44;;;;;;;10.73;9.83;;;;;;;;;;5067798;28;20236;-62
2021/10/20 03:19:09;;;;;;;9.93;8.93;;;;;;;;;;5064224;28;20620;-63
2021/10/20 03:21:34;;;;;;;10.83;9.83;;;;;;;;;;5060331;28;20235;-63
2021/10/20 03:24:00;;;;;;;9.67;8.77;;;;;;;;;;5063687;28;20299;-63
2021/10/20 03:26:25;;;;;;;11.07;10.03;;;;;;;;;;5067773;28;20223;-63
2021/10/20 03:28:50;;;;;;;10.20;9.30;;;;;;;;;;5063216;28;20292;-63
2021/10/20 03:31:17;;;;;;;11.27;9.63;;;;;;;;;;5060525;28;20220;-63
2021/10/20 03:33:42;;;;;;;12.60;9.90;;;;;;;;;;5064440;28;20236;-62
2021/10/20 03:36:07;;;;;;;18.37;9.60;;;;;;;;;;5067279;28;20456;-63
2021/10/20 03:38:33;;;;;;;11.90;9.87;;;;;;;;;;5062570;28;20215;-63
2021/10/20 03:40:58;;;;;;;10.23;9.17;;;;;;;;;;5060550;28;20562;-63
2021/10/20 03:43:23;;;;;;;11.13;9.80;;;;;;;;;;5065456;28;20227;-63
2021/10/20 03:45:48;;;;;;;10.20;9.20;;;;;;;;;;5067171;28;20601;-63
2021/10/20 03:48:14;;;;;;;10.03;9.03;;;;;;;;;;5062209;28;20296;-64
2021/10/20 03:50:41;;;;;;;11.03;9.67;;;;;;;;;;5059879;28;20236;-63
2021/10/20 03:53:06;;;;;;;9.80;8.87;;;;;;;;;;5065857;28;20217;-64
2021/10/20 03:55:31;;;;;;;10.60;9.57;;;;;;;;;;5046740;28;20495;-62
2021/10/20 03:57:58;;;;;;;10.00;9.00;;;;;;;;;;5064531;28;20667;-63
2021/10/20 04:00:23;;;;;;;9.27;8.47;;;;;;;;;;5064359;28;20235;-63
2021/10/20 04:02:49;;;;;;;10.10;9.17;;;;;;;;;;5064260;28;20460;-63
2021/10/20 04:05:18;;;;;;;10.93;9.47;;;;;;;;;;5064364;28;20318;-61
2021/10/20 04:07:45;;;;;;;9.80;8.90;;;;;;;;;;5060015;28;20224;-62
2021/10/20 04:10:13;;;;;;;10.20;9.00;;;;;;;;;;5062519;28;20847;-63
2021/10/20 04:12:38;;;;;;;9.40;8.50;;;;;;;;;;5066846;28;20456;-64
2021/10/20 04:15:04;;;;;;;9.50;8.53;;;;;;;;;;5064345;28;20469;-63
2021/10/20 04:17:29;;;;;;;9.30;8.40;;;;;;;;;;5059970;28;20235;-64
2021/10/20 04:19:54;;;;;;;8.60;7.80;;;;;;;;;;5062305;28;20232;-63
2021/10/20 04:22:20;;;;;;;11.57;9.23;;;;;;;;;;5067029;28;20217;-63
2021/10/20 04:24:45;;;;;;;10.10;9.10;;;;;;;;;;5063385;28;20227;-64
2021/10/20 04:27:10;;;;;;;9.87;8.97;;;;;;;;;;5054880;28;20359;-64
2021/10/20 04:29:35;;;;;;;8.83;8.13;;;;;;;;;;5052638;28;20232;-63
2021/10/20 04:32:01;;;;;;;8.83;8.03;;;;;;;;;;5057456;28;20648;-64
2021/10/20 04:34:26;;;;;;;8.70;7.83;;;;;;;;;;5065470;28;20231;-64
2021/10/20 04:36:51;;;;;;;9.17;8.30;;;;;;;;;;5064675;28;20220;-64
2021/10/20 04:39:16;;;;;;;9.13;8.23;;;;;;;;;;5059975;28;20564;-64
2021/10/20 04:41:42;;;;;;;8.70;7.87;;;;;;;;;;5060898;28;20673;-64
2021/10/20 04:44:07;;;;;;;9.40;8.50;;;;;;;;;;5062489;28;20281;-65
2021/10/20 04:46:32;;;;;;;8.77;7.97;;;;;;;;;;5064072;28;20224;-64
2021/10/20 04:48:58;;;;;;;9.10;7.57;;;;;;;;;;5068838;28;20225;-64
2021/10/20 04:51:23;;;;;;;10.97;8.53;;;;;;;;;;5064293;28;20220;-64
2021/10/20 04:53:49;;;;;;;10.80;7.97;;;;;;;;;;5068424;28;20225;-64
2021/10/20 04:56:14;;;;;;;9.57;7.60;;;;;;;;;;5063570;28;20315;-63
2021/10/20 04:58:39;;;;;;;8.87;8.03;;;;;;;;;;5059596;28;20551;-63
2021/10/20 05:01:04;;;;;;;8.70;7.90;;;;;;;;;;5071962;28;20228;-63
2021/10/20 05:03:30;;;;;;;9.03;8.10;;;;;;;;;;5066566;28;20221;-65
2021/10/20 05:05:55;;;;;;;7.77;7.00;;;;;;;;;;5063247;28;20299;-64
2021/10/20 05:08:20;;;;;;;8.47;7.63;;;;;;;;;;5061274;28;20269;-63
2021/10/20 05:10:46;;;;;;;7.90;7.10;;;;;;;;;;5065784;28;20320;-63
2021/10/20 05:13:11;;;;;;;7.90;7.10;;;;;;;;;;5070081;28;20244;-64
2021/10/20 05:15:38;;;;;;;8.00;7.23;;;;;;;;;;5066243;28;20668;-63
2021/10/20 05:18:03;;;;;;;8.20;7.40;;;;;;;;;;5073446;28;20221;-64
2021/10/20 05:20:29;;;;;;;7.80;7.10;;;;;;;;;;5066657;28;21008;-65
2021/10/20 05:22:54;;;;;;;7.47;6.77;;;;;;;;;;5062846;28;20273;-63
2021/10/20 05:25:20;;;;;;;6.77;6.17;;;;;;;;;;5067422;28;20225;-63
2021/10/20 05:27:45;;;;;;;9.93;7.40;;;;;;;;;;5067978;28;20236;-64
2021/10/20 05:30:11;;;;;;;8.13;7.33;;;;;;;;;;5052090;28;20232;-64
2021/10/20 05:32:37;;;;;;;8.50;7.80;;;;;;;;;;5062686;28;20224;-62
2021/10/20 05:35:03;;;;;;;7.67;6.90;;;;;;;;;;5068341;28;20471;-64
2021/10/20 05:37:28;;;;;;;6.93;6.30;;;;;;;;;;5069691;28;20841;-64
2021/10/20 05:39:53;;;;;;;7.37;6.67;;;;;;;;;;5063553;28;20247;-64
2021/10/20 05:42:19;;;;;;;7.67;6.87;;;;;;;;;;5062186;28;20233;-64
2021/10/20 05:44:45;;;;;;;7.50;6.80;;;;;;;;;;5063282;28;20220;-63
2021/10/20 05:47:10;;;;;;;7.07;6.43;;;;;;;;;;5062692;28;20459;-64
2021/10/20 05:49:36;;;;;;;7.33;6.67;;;;;;;;;;5068403;28;20228;-63
2021/10/20 05:52:02;;;;;;;7.33;6.63;;;;;;;;;;5069456;28;20231;-64
2021/10/20 05:54:27;;;;;;;8.53;7.67;;;;;;;;;;5062975;28;20734;-63
2021/10/20 05:56:52;;;;;;;8.03;7.33;;;;;;;;;;5062306;28;20804;-63
2021/10/20 05:59:22;;;;;;;7.80;7.10;;;;;;;;;;5068917;28;20220;-64
2021/10/20 06:01:47;;;;;;;7.00;6.40;;;;;;;;;;5068561;28;20647;-62
2021/10/20 06:04:13;;;;;;;5.83;5.23;;;;;;;;;;5063552;28;20462;-63
2021/10/20 06:06:38;;;;;;;7.43;6.63;;;;;;;;;;5061802;28;20519;-63
2021/10/20 06:09:04;;;;;;;7.30;6.60;;;;;;;;;;5068404;28;20227;-63
2021/10/20 06:11:29;;;;;;;7.10;5.57;;;;;;;;;;5069057;28;20251;-64
2021/10/20 06:13:55;;;;;;;5.97;5.40;;;;;;;;;;5062347;28;20627;-63
2021/10/20 06:16:20;;;;;;;7.17;6.40;;;;;;;;;;5061956;28;20236;-64
2021/10/20 06:18:45;;;;;;;7.13;5.87;;;;;;;;;;5074203;28;20235;-63
2021/10/20 06:21:11;;;;;;;7.53;6.67;;;;;;;;;;5062199;28;20652;-63
2021/10/20 06:23:36;;;;;;;6.67;6.00;;;;;;;;;;5068843;28;20225;-64
2021/10/20 06:26:01;;;;;;;5.90;5.40;;;;;;;;;;5068543;28;20292;-64
2021/10/20 06:28:27;;;;;;;7.57;6.57;;;;;;;;;;5055274;28;20220;-64
2021/10/20 06:30:52;;;;;;;6.30;5.70;;;;;;;;;;5068136;28;20235;-63
2021/10/20 06:33:17;;;;;;;6.43;5.80;;;;;;;;;;5044075;28;20307;-64
2021/10/20 06:35:43;;;;;;;5.70;5.20;;;;;;;;;;5061525;28;20290;-63
2021/10/20 06:38:09;;;;;;;6.57;6.03;;;;;;;;;;5068688;28;20649;-63
2021/10/20 06:40:34;;;;;;;6.50;5.90;;;;;;;;;;5068216;28;20546;-64
2021/10/20 06:42:59;;;;;;;5.47;4.97;;;;;;;;;;5061126;28;20225;-65
2021/10/20 06:45:25;;;;;;;6.17;5.60;;;;;;;;;;5070389;28;20216;-64
2021/10/20 06:47:50;;;;;;;7.03;5.80;;;;;;;;;;5061014;28;20228;-63
2021/10/20 06:50:16;;;;;;;6.27;5.67;;;;;;;;;;5061686;28;20221;-64
2021/10/20 06:52:42;;;;;;;5.40;4.90;;;;;;;;;;5067888;28;20304;-63
2021/10/20 06:55:07;;;;;;;5.70;5.20;;;;;;;;;;5067356;28;20310;-64
2021/10/20 06:57:33;;;;;;;6.00;5.40;;;;;;;;;;5061187;28;20221;-64
2021/10/20 06:59:58;;;;;;;5.90;5.30;;;;;;;;;;5061858;28;20252;-64
2021/10/20 07:02:23;;;;;;;5.67;4.20;;;;;;;;;;5067420;28;20739;-64
2021/10/20 07:04:48;;;;;;;5.63;5.07;;;;;;;;;;5065816;28;20231;-64
2021/10/20 07:07:15;;;;;;;5.77;5.27;;;;;;;;;;5060764;28;20311;-64
2021/10/20 07:09:40;;;;;;;7.47;4.63;;;;;;;;;;5062300;28;20734;-63
2021/10/20 07:12:05;;;;;;;5.60;5.10;;;;;;;;;;5067820;28;20471;-64
2021/10/20 07:14:31;;;;;;;5.10;4.70;;;;;;;;;;5065544;28;20602;-63
2021/10/20 07:16:58;;;;;;;5.30;4.80;;;;;;;;;;5060781;28;20308;-63
2021/10/20 07:19:25;;;;;;;5.23;4.73;;;;;;;;;;5062100;28;20236;-63
2021/10/20 07:21:50;;;;;;;6.20;5.60;;;;;;;;;;5067387;28;20769;-65
2021/10/20 07:24:16;;;;;;;5.70;4.90;;;;;;;;;;5065872;28;20470;-63
2021/10/20 07:26:41;;;;;;;4.60;4.20;;;;;;;;;;5060598;28;20615;-64
2021/10/20 07:29:06;;;;;;;6.10;4.80;;;;;;;;;;5062394;28;20229;-65
2021/10/20 07:31:32;;;;;;;6.73;4.77;;;;;;;;;;5066926;28;20232;-63
2021/10/20 07:33:58;;;;;;;5.77;5.13;;;;;;;;;;5066242;28;20755;-64
2021/10/20 07:36:23;;;;;;;7.43;4.77;;;;;;;;;;5059074;28;20538;-64
2021/10/20 07:38:50;;;;;;;5.93;4.77;;;;;;;;;;5062211;28;20472;-64
2021/10/20 07:41:15;;;;;;;5.40;4.27;;;;;;;;;;5066923;28;20229;-62
2021/10/20 07:43:40;;;;;;;4.87;4.37;;;;;;;;;;5062266;28;20496;-63
2021/10/20 07:46:06;;;;;;;5.10;4.70;;;;;;;;;;5067522;28;20302;-64
2021/10/20 07:48:31;;;;;;;5.93;5.07;;;;;;;;;;5065233;28;20664;-64
2021/10/20 07:50:57;;;;;;;5.57;5.07;;;;;;;;;;5060200;28;20228;-63
2021/10/20 07:53:22;;;;;;;7.03;5.33;;;;;;;;;;5062167;28;20304;-64
2021/10/20 07:55:48;;;;;;;4.97;4.47;;;;;;;;;;5067012;28;20494;-64
2021/10/20 07:58:13;;;;;;;4.77;4.37;;;;;;;;;;5065095;28;20248;-63
2021/10/20 08:00:38;;;;;;;5.53;5.00;;;;;;;;;;5059468;28;20221;-63
2021/10/20 08:03:03;;;;;;;5.10;4.33;;;;;;;;;;5063105;28;20228;-63
2021/10/20 08:05:29;;;;;;;5.67;4.90;;;;;;;;;;5066682;28;20312;-63
2021/10/20 08:07:54;;;;;;;5.17;4.70;;;;;;;;;;5064297;28;20243;-63
2021/10/20 08:10:24;;;;;;;5.57;4.17;;;;;;;;;;5059574;28;20233;-63
2021/10/20 08:12:49;;;;;;;5.60;4.50;;;;;;;;;;5062893;28;20544;-65
2021/10/20 08:15:15;;;;;;;4.67;4.27;;;;;;;;;;5066612;28;20576;-61
2021/10/20 08:17:42;;;;;;;6.10;3.87;;;;;;;;;;5064790;28;20668;-63
2021/10/20 08:20:09;;;;;;;6.07;4.37;;;;;;;;;;5059780;28;20850;-64
2021/10/20 08:22:36;;;;;;;5.00;4.30;;;;;;;;;;5061336;28;20899;-63
2021/10/20 08:25:02;;;;;;;6.90;4.50;;;;;;;;;;5066842;28;20510;-64
2021/10/20 08:27:28;;;;;;;5.23;4.03;;;;;;;;;;5064343;28;20600;-64
2021/10/20 08:29:53;;;;;;;3.77;3.47;;;;;;;;;;5059793;28;20493;-64
2021/10/20 08:32:18;;;;;;;4.33;3.93;;;;;;;;;;5061671;28;20316;-63
2021/10/20 08:34:44;;;;;;;4.70;4.30;;;;;;;;;;5066673;28;20577;-64
2021/10/20 08:37:09;;;;;;;5.93;4.23;;;;;;;;;;5064966;28;20232;-64
2021/10/20 08:39:34;;;;;;;4.77;3.87;;;;;;;;;;5059632;28;20247;-63
2021/10/20 08:42:00;;;;;;;6.93;4.10;;;;;;;;;;5062748;28;20642;-64
2021/10/20 08:44:26;;;;;;;4.60;4.07;;;;;;;;;;5068526;28;20314;-64
2021/10/20 08:46:52;;;;;;;4.50;4.10;;;;;;;;;;5066374;28;20216;-63
2021/10/20 08:49:18;;;;;;;3.90;3.53;;;;;;;;;;5070326;28;20474;-63
2021/10/20 08:51:44;;;;;;;4.83;3.80;;;;;;;;;;5067855;28;20793;-64
2021/10/20 08:54:10;;;;;;;7.13;4.57;;;;;;;;;;5063779;28;20228;-63
2021/10/20 08:56:36;;;;;;;4.33;3.93;;;;;;;;;;5066413;28;20815;-63
2021/10/20 08:59:01;;;;;;;4.30;3.90;;;;;;;;;;5070514;28;20236;-63
2021/10/20 09:01:26;;;;;;;4.57;3.77;;;;;;;;;;5067169;28;20551;-63
2021/10/20 09:03:51;;;;;;;4.13;3.60;;;;;;;;;;5063587;28;20239;-64
2021/10/20 09:06:17;;;;;;;4.00;3.70;;;;;;;;;;5066489;28;20304;-63
2021/10/20 09:08:43;;;;;;;4.80;4.30;;;;;;;;;;5069754;28;20225;-64
2021/10/20 09:14:19;;;;;;;4.20;3.80;;;;;;;;;;5050773;28;20921;-63
2021/10/20 09:16:45;;;;;;;5.07;4.07;;;;;;;;;;5062364;28;20467;-63
2021/10/20 09:19:16;;;;;;;4.57;4.10;;;;;;;;;;5066855;28;20919;-63
2021/10/20 09:22:03;;;;;;;3.77;3.47;;;;;;;;;;5069758;28;20229;-62
2021/10/20 09:24:33;;;;;;;6.23;4.13;;;;;;;;;;5069742;28;20523;-64
2021/10/20 09:26:59;;;;;;;5.20;3.83;;;;;;;;;;5050605;28;20455;-63
2021/10/20 09:29:26;;;;;;;6.63;3.90;;;;;;;;;;5063005;28;20474;-64
2021/10/20 09:31:51;;;;;;;3.70;3.40;;;;;;;;;;5068018;28;20554;-63
2021/10/20 09:34:17;;;;;;;4.30;3.90;;;;;;;;;;5069838;28;20455;-63
2021/10/20 09:36:43;;;;;;;6.07;3.80;;;;;;;;;;5063792;28;20233;-64
2021/10/20 09:39:09;;;;;;;4.77;3.60;;;;;;;;;;5062891;28;20459;-64
2021/10/20 09:41:35;;;;;;;5.10;3.93;;;;;;;;;;5068264;28;20240;-65
2021/10/20 09:44:00;;;;;;;3.97;3.57;;;;;;;;;;5064103;28;20570;-64
2021/10/20 09:46:39;;;;;;;6.23;3.87;;;;;;;;;;5067559;28;20645;-63
2021/10/20 09:49:17;;;;;;;5.73;3.73;;;;;;;;;;5069041;28;20256;-64
2021/10/20 09:51:42;;;;;;;5.00;4.03;;;;;;;;;;5067182;28;20507;-62
2021/10/20 09:54:25;;;;;;;5.00;3.80;;;;;;;;;;5061010;28;20838;-64
2021/10/20 09:56:58;;;;;;;4.50;4.10;;;;;;;;;;5062169;28;20228;-64
2021/10/20 09:59:26;;;;;;;5.60;4.13;;;;;;;;;;5068124;28;20491;-64
2021/10/20 10:01:52;;;;;;;6.63;4.30;;;;;;;;;;5069118;28;20470;-63
2021/10/20 10:04:18;;;;;;;4.53;4.10;;;;;;;;;;5063108;28;20473;-63
2021/10/20 10:06:47;;;;;;;5.80;4.77;;;;;;;;;;5061867;28;20264;-63
2021/10/20 10:09:14;;;;;;;10.47;4.23;;;;;;;;;;5067418;28;20764;-65
2021/10/20 10:12:22;;;;;;;5.80;5.07;;;;;;;;;;5043200;28;20468;-63
2021/10/20 10:14:50;;;;;;;5.70;4.47;;;;;;;;;;5059391;28;20468;-63
2021/10/20 10:17:19;;;;;;;7.17;4.23;;;;;;;;;;5067212;28;20846;-64
2021/10/20 10:19:45;;;;;;;6.73;4.87;;;;;;;;;;5067521;28;20474;-65
2021/10/20 10:22:23;;;;;;;7.23;4.47;;;;;;;;;;5063467;28;20459;-63
2021/10/20 10:24:49;;;;;;;4.90;4.50;;;;;;;;;;5060321;28;20508;-62
2021/10/20 10:27:14;;;;;;;9.43;4.57;;;;;;;;;;5065850;28;20475;-63
2021/10/20 10:29:55;;;;;;;4.90;4.40;;;;;;;;;;5068433;28;20693;-64
2021/10/20 10:32:22;;;;;;;6.67;5.60;;;;;;;;;;5066095;28;20212;-63
2021/10/20 10:34:49;;;;;;;5.63;5.03;;;;;;;;;;5061275;28;20503;-63
2021/10/20 10:37:26;;;;;;;6.80;5.43;;;;;;;;;;5063401;28;20473;-63
2021/10/20 10:39:52;;;;;;;16.77;14.40;;;;;;;;;;5044447;28;20480;-67
2021/10/20 10:42:17;;;;;;;22.23;19.23;;;;;;;;;;5068688;28;20903;-67
2021/10/20 10:44:48;;;;;;;5.50;5.00;;;;;;;;;;5073089;28;20212;-64
2021/10/20 10:47:18;;;;;;;6.00;4.73;;;;;;;;;;5073258;28;20216;-64
2021/10/20 10:49:49;;;;;;;7.67;4.60;;;;;;;;;;5073719;28;20531;-63
2021/10/20 10:52:27;;;;;;;6.80;4.70;;;;;;;;;;5074095;28;20862;-63
2021/10/20 10:54:56;;;;;;;9.37;5.50;;;;;;;;;;5073548;28;20530;-64
2021/10/20 10:57:21;;;;;;;5.67;5.07;;;;;;;;;;5073933;28;20459;-64
2021/10/20 10:59:54;;;;;;;6.60;4.40;;;;;;;;;;5074160;28;20805;-63
2021/10/20 11:02:49;;;;;;;5.90;5.30;;;;;;;;;;5073736;28;20212;-64
2021/10/20 11:05:16;;;;;;;6.90;5.43;;;;;;;;;;5072795;28;20454;-63
2021/10/20 11:07:45;;;;;;;7.80;4.70;;;;;;;;;;5073700;28;20459;-64
2021/10/20 11:10:11;;;;;;;8.00;5.43;;;;;;;;;;5072110;28;20821;-63
2021/10/20 11:12:38;;;;;;;5.97;5.43;;;;;;;;;;5074483;28;20459;-64
2021/10/20 11:15:05;;;;;;;6.97;5.23;;;;;;;;;;5074609;28;20478;-64
2021/10/20 11:17:31;;;;;;;6.57;5.60;;;;;;;;;;5074147;28;20473;-64
2021/10/20 11:19:57;;;;;;;6.13;5.20;;;;;;;;;;5074394;28;20462;-64
2021/10/20 11:22:25;;;;;;;14.07;5.60;;;;;;;;;;5074364;28;20918;-64
2021/10/20 11:24:52;;;;;;;5.17;4.70;;;;;;;;;;5074481;28;20213;-64
2021/10/20 11:27:22;;;;;;;5.70;4.60;;;;;;;;;;5074012;28;20482;-63
2021/10/20 11:29:48;;;;;;;8.00;4.90;;;;;;;;;;5074444;28;21005;-64
2021/10/20 11:32:15;;;;;;;5.53;5.00;;;;;;;;;;5073898;28;20479;-65
2021/10/20 11:34:43;;;;;;;6.10;5.50;;;;;;;;;;5074290;28;20546;-63
2021/10/20 11:37:10;;;;;;;5.10;4.60;;;;;;;;;;5074197;28;20459;-63
2021/10/20 11:39:36;;;;;;;5.83;4.10;;;;;;;;;;5073657;28;20529;-63
2021/10/20 11:42:03;;;;;;;5.30;4.80;;;;;;;;;;5074163;28;20459;-63
2021/10/20 11:44:33;;;;;;;4.97;4.20;;;;;;;;;;5072827;28;20463;-64
2021/10/20 11:47:01;;;;;;;6.77;4.70;;;;;;;;;;5073125;28;20459;-63
2021/10/20 11:49:27;;;;;;;4.90;4.50;;;;;;;;;;5073541;28;20538;-64
2021/10/20 11:51:53;;;;;;;9.37;5.30;;;;;;;;;;5074025;28;20489;-62
2021/10/20 11:54:20;;;;;;;7.50;5.00;;;;;;;;;;5073441;28;20224;-63
2021/10/20 11:56:56;;;;;;;6.60;5.17;;;;;;;;;;5073822;28;20239;-65
2021/10/20 11:59:27;;;;;;;5.10;4.60;;;;;;;;;;5073615;28;20453;-64
2021/10/20 12:01:53;;;;;;;6.63;4.30;;;;;;;;;;5073960;28;20478;-65
2021/10/20 12:04:20;;;;;;;7.63;4.13;;;;;;;;;;5073304;28;20680;-63
2021/10/20 12:06:50;;;;;;;5.00;4.37;;;;;;;;;;5073701;28;20952;-63
2021/10/20 12:09:16;;;;;;;4.93;3.93;;;;;;;;;;5072240;28;20478;-63
2021/10/20 12:11:41;;;;;;;5.30;4.30;;;;;;;;;;5073600;28;20557;-64
2021/10/20 12:14:08;;;;;;;5.03;4.17;;;;;;;;;;5072569;28;20228;-64
2021/10/20 12:16:34;;;;;;;5.40;4.07;;;;;;;;;;5074287;28;20722;-64
2021/10/20 12:19:02;;;;;;;4.37;3.93;;;;;;;;;;5080296;28;20483;-64
2021/10/20 12:21:29;;;;;;;7.27;5.30;;;;;;;;;;5079752;28;20469;-63
2021/10/20 12:23:58;;;;;;;4.87;4.47;;;;;;;;;;5080372;28;20485;-65
2021/10/20 12:26:27;;;;;;;7.97;4.73;;;;;;;;;;5079864;28;20469;-64
2021/10/20 12:28:53;;;;;;;4.47;4.07;;;;;;;;;;5080263;28;20454;-63
2021/10/20 12:31:19;;;;;;;5.23;4.40;;;;;;;;;;5079908;28;20463;-63
2021/10/20 12:33:46;;;;;;;5.93;4.43;;;;;;;;;;5080553;28;20519;-64
2021/10/20 12:36:13;;;;;;;6.57;3.73;;;;;;;;;;5080224;28;20234;-65
2021/10/20 12:38:43;;;;;;;7.33;4.57;;;;;;;;;;5079749;28;20446;-64
2021/10/20 12:41:29;;;;;;;4.50;4.07;;;;;;;;;;5080130;28;20473;-63
2021/10/20 12:43:57;;;;;;;7.67;4.20;;;;;;;;;;5080337;28;20477;-64
2021/10/20 12:46:23;;;;;;;3.70;3.40;;;;;;;;;;5079914;28;20761;-64
2021/10/20 12:48:49;;;;;;;5.40;4.33;;;;;;;;;;5080138;28;20507;-64
2021/10/20 12:51:17;;;;;;;5.27;3.60;;;;;;;;;;5079924;28;20463;-64
2021/10/20 12:53:44;;;;;;;4.73;3.67;;;;;;;;;;5080127;28;20539;-65
2021/10/20 12:56:11;;;;;;;8.13;3.63;;;;;;;;;;5079465;28;20803;-63
2021/10/20 12:58:36;;;;;;;4.57;3.90;;;;;;;;;;5080017;28;20458;-64
2021/10/20 13:01:01;;;;;;;4.57;4.13;;;;;;;;;;5079757;28;20929;-64
2021/10/20 13:03:29;;;;;;;4.87;4.27;;;;;;;;;;5079997;28;20243;-63
2021/10/20 13:05:54;;;;;;;3.90;3.60;;;;;;;;;;5079984;28;20565;-64
2021/10/20 13:08:19;;;;;;;5.50;3.77;;;;;;;;;;5079530;28;20533;-64
2021/10/20 13:10:44;;;;;;;5.10;4.60;;;;;;;;;;5079859;28;20596;-64
2021/10/20 13:13:10;;;;;;;4.00;3.60;;;;;;;;;;5079732;28;20309;-63
2021/10/20 13:15:35;;;;;;;4.33;3.57;;;;;;;;;;5079943;28;20224;-64
2021/10/20 13:18:00;;;;;;;3.90;3.40;;;;;;;;;;5079482;28;20370;-63
2021/10/20 13:20:26;;;;;;;4.53;3.90;;;;;;;;;;5079677;28;20235;-64
2021/10/20 13:22:52;;;;;;;4.53;4.00;;;;;;;;;;5079889;28;20212;-64
2021/10/20 13:25:17;;;;;;;5.03;3.77;;;;;;;;;;5079161;28;20519;-65
2021/10/20 13:27:44;;;;;;;4.90;3.47;;;;;;;;;;5079745;28;20231;-65
2021/10/20 13:30:11;;;;;;;4.63;4.23;;;;;;;;;;5075158;28;20614;-64
2021/10/20 13:32:37;;;;;;;4.67;3.63;;;;;;;;;;5076330;28;20459;-64
2021/10/20 13:35:03;;;;;;;5.77;4.00;;;;;;;;;;5076177;28;20467;-63
2021/10/20 13:37:30;;;;;;;6.70;3.93;;;;;;;;;;5076456;28;20216;-64
2021/10/20 13:39:56;;;;;;;5.30;3.77;;;;;;;;;;5076320;28;20469;-65
2021/10/20 13:42:21;;;;;;;4.53;3.80;;;;;;;;;;5076033;28;20530;-63
2021/10/20 13:44:46;;;;;;;6.13;3.87;;;;;;;;;;5076231;28;20538;-64
2021/10/20 13:47:12;;;;;;;4.70;4.20;;;;;;;;;;5075760;28;20266;-63
2021/10/20 13:49:37;;;;;;;5.03;4.40;;;;;;;;;;5076232;28;20240;-64
2021/10/20 13:52:03;;;;;;;5.00;3.57;;;;;;;;;;5076102;28;20281;-62
2021/10/20 13:54:29;;;;;;;4.70;4.20;;;;;;;;;;5076115;28;20223;-64
2021/10/20 13:56:57;;;;;;;7.37;4.20;;;;;;;;;;5076202;28;20467;-64
2021/10/20 13:59:23;;;;;;;3.90;3.10;;;;;;;;;;5075582;28;20516;-65
2021/10/20 14:01:48;;;;;;;4.00;3.60;;;;;;;;;;5076035;28;20494;-64
2021/10/20 14:04:16;;;;;;;4.57;3.90;;;;;;;;;;5075636;28;20466;-64
2021/10/20 14:06:41;;;;;;;3.40;3.10;;;;;;;;;;5075890;28;20237;-65
2021/10/20 14:09:06;;;;;;;6.10;3.80;;;;;;;;;;5075250;28;20463;-64
2021/10/20 14:11:31;;;;;;;4.93;4.27;;;;;;;;;;5075710;28;20225;-65
2021/10/20 14:13:57;;;;;;;4.63;4.23;;;;;;;;;;5075733;28;20220;-64
2021/10/20 14:16:24;;;;;;;4.97;4.00;;;;;;;;;;5075209;28;20221;-64
2021/10/20 14:18:49;;;;;;;5.10;4.00;;;;;;;;;;5075737;28;20657;-64
2021/10/20 14:21:14;;;;;;;3.60;3.30;;;;;;;;;;5075076;28;20538;-64
2021/10/20 14:23:39;;;;;;;4.30;3.60;;;;;;;;;;5075655;28;20301;-63
2021/10/20 14:26:05;;;;;;;4.30;3.80;;;;;;;;;;5075205;28;20220;-62
2021/10/20 14:28:31;;;;;;;7.00;4.03;;;;;;;;;;5075398;28;20537;-64
2021/10/20 14:30:56;;;;;;;6.60;4.30;;;;;;;;;;5075315;28;20710;-64
2021/10/20 14:33:21;;;;;;;4.33;3.60;;;;;;;;;;5075214;28;20612;-64
2021/10/20 14:35:47;;;;;;;5.27;4.10;;;;;;;;;;5075412;28;20562;-65
2021/10/20 14:38:12;;;;;;;3.93;3.63;;;;;;;;;;5075059;28;20636;-63